Dover, MN

9:11 AM CDT on September 17, 2014 (GMT -0500)
Preston | Change Station
CLOSE
Current Station
Airport
Location: Preston,
Elevation: 1276 ft
Nearby Weather Stations

Elev 1276 ft 43.68 °N, 92.17 °W | Updated 15 minutes ago

Overcast
Overcast
52 °F
Feels Like 52 °F
N
5
Wind Variable Wind from SSW

Today
High -- | Low -- °F
--% Chance of Precip.
Yesterday
High -- | Low -- °F
Precip. -- in
6:50 AM 7:15 PM
Waning Crescent, 36% visible
Pressure 30.00 in
Visibility 10.0 miles
Clouds Mostly Cloudy 9000 ft
Dew Point 51 °F
Humidity 95%
Rainfall 0.00 in
Snow Depth Not available.
UV 1 out of 12
Pollen 3.60 out of 12
Air Quality Not available.
Flu Activity Not available.
METAR KFKA 171356Z AUTO 20004KT 10SM BKN090 11/10 A3000 RMK AO2 T01120104

More Conditions Fewer Conditions

Pressure 30.00 in
Visibility 10.0 miles
Clouds Mostly Cloudy 9000 ft
Dew Point 51 °F
Humidity 95%
Rainfall 0.00 in
Snow Depth Not available.
UV 1 out of 12
Pollen 3.60 out of 12
Air Quality Not available.
Flu Activity Not available.
METAR KFKA 171356Z AUTO 20004KT 10SM BKN090 11/10 A3000 RMK AO2 T01120104

More Conditions Fewer Conditions

10-Day Weather Forecast

Almanac

Astronomy

Sep. 17, 2014 Rise Set
Actual Time 6:50 AM CDT 7:15 PM CDT
Civil Twilight 6:21 AM CDT 7:44 PM CDT
Nautical Twilight 5:46 AM CDT 8:18 PM CDT
Astronomical Twilight 5:11 AM CDT 8:53 PM CDT
Moon 12:41 AM CDT 3:33 PM CDT
Length of Visible Light 13h 22m
Length of Day
12h 25m
Tomorrow will be 3m 0s shorter.
Waning Crescent, 36% of the Moon is Illuminated
Today
Waning Crescent
Sep 24
New
Oct 1
First Quarter
Oct 8
Full
Oct 15
Last Quarter

Today's Extremes

State Highs State Lows

Community

WunderPhotos

Upload Photos

1,754,049 photos uploaded!

WunderBlogs® & News

Nearby

Snow Depth

Station Depth Elevation
No new snow has been reported.

Earthquake Activity

City Distance Mag. Time & Date
No recent earthquake activity has been reported nearby.
Minimum magnitude displayed is 2.5.

Coastal Water Temperatures

Place Temperature
No Stations Reporting

Nearby Weather Stations